Time;durP1;ratioP1;P1;durP2;ratioP2;P2;SDS_P1;SDS_P2;PMS_P1;PMS_P2;Temp;Humidity;BMP_temperature;BMP_pressure;BME280_temperature;BME280_humidity;BME280_pressure;Samples;Min_cycle;Max_cycle;Signal;HPM_P1;HPM_P2
2024/04/03 00:00:54;;;;;;;7.00;2.55;;;12.10;99.90;;;;;;4981237;28;20429;-91
2024/04/03 00:03:20;;;;;;;5.90;2.42;;;12.10;99.90;;;;;;4998377;28;20034;-89
2024/04/03 00:05:45;;;;;;;5.07;2.42;;;12.00;99.90;;;;;;4965203;28;20026;-92
2024/04/03 00:08:11;;;;;;;6.55;2.92;;;12.10;99.90;;;;;;4976320;28;20018;-85
2024/04/03 00:10:38;;;;;;;7.25;2.70;;;12.10;99.90;;;;;;5004381;28;20011;-90
2024/04/03 00:13:05;;;;;;;6.68;2.72;;;12.10;99.90;;;;;;5020704;28;20034;-82
2024/04/03 00:15:33;;;;;;;4.47;2.42;;;12.00;99.90;;;;;;5004205;28;20019;-88
2024/04/03 00:17:59;;;;;;;5.03;2.50;;;12.00;99.90;;;;;;4974599;28;20042;-89
2024/04/03 00:20:24;;;;;;;6.05;2.65;;;12.00;99.90;;;;;;4980485;28;20118;-89
2024/04/03 00:22:50;;;;;;;6.55;2.72;;;12.00;99.90;;;;;;4980579;28;20077;-90
2024/04/03 00:25:17;;;;;;;7.15;2.85;;;12.00;99.90;;;;;;4964405;28;20077;-89
2024/04/03 00:27:43;;;;;;;6.55;3.15;;;11.90;99.90;;;;;;4981206;28;20120;-90
2024/04/03 00:30:09;;;;;;;5.05;2.33;;;11.90;99.90;;;;;;4981054;28;20466;-88
2024/04/03 00:32:35;;;;;;;6.30;3.00;;;11.90;99.90;;;;;;4980712;28;20019;-89
2024/04/03 00:35:03;;;;;;;3.67;2.60;;;11.90;99.90;;;;;;4980373;28;20030;-88
2024/04/03 00:37:35;;;;;;;5.32;2.72;;;11.90;99.90;;;;;;4963715;28;20062;-89
2024/04/03 00:40:00;;;;;;;4.57;2.40;;;11.90;99.90;;;;;;4983566;28;20035;-88
2024/04/03 00:42:26;;;;;;;4.43;2.47;;;11.90;99.90;;;;;;4979778;28;20320;-88
2024/04/03 00:44:52;;;;;;;4.65;2.70;;;11.90;99.90;;;;;;4963878;28;20029;-90
2024/04/03 00:47:18;;;;;;;3.47;2.50;;;11.90;99.90;;;;;;4965694;28;20055;-89
2024/04/03 00:49:45;;;;;;;3.75;2.50;;;12.00;99.90;;;;;;4980141;28;20101;-89
2024/04/03 00:52:14;;;;;;;3.53;2.50;;;11.90;99.90;;;;;;4979601;28;20022;-90
2024/04/03 00:54:42;;;;;;;3.42;2.63;;;11.90;99.90;;;;;;4979460;28;20035;-90
2024/04/03 00:57:08;;;;;;;2.80;2.22;;;11.90;99.90;;;;;;4996533;28;20053;-90
2024/04/03 00:59:34;;;;;;;4.68;2.80;;;11.90;99.90;;;;;;4963614;28;20038;-89
2024/04/03 01:02:00;;;;;;;5.05;2.60;;;11.90;99.90;;;;;;4979560;28;20040;-90
2024/04/03 01:04:26;;;;;;;3.83;2.47;;;11.90;99.90;;;;;;4963126;28;20475;-90
2024/04/03 01:06:52;;;;;;;4.63;2.78;;;11.90;99.90;;;;;;4963628;28;20062;-90
2024/04/03 01:09:17;;;;;;;5.55;2.50;;;11.90;99.90;;;;;;4996572;28;20026;-90
2024/04/03 01:11:44;;;;;;;5.05;2.40;;;12.00;99.90;;;;;;4979316;28;20027;-89
2024/04/03 01:14:09;;;;;;;2.88;2.20;;;12.00;99.90;;;;;;4963969;28;20061;-90
2024/04/03 01:16:36;;;;;;;2.55;1.90;;;11.90;99.90;;;;;;4962957;28;20450;-91
2024/04/03 01:19:02;;;;;;;2.20;1.50;;;11.90;99.90;;;;;;4979439;28;20031;-89
2024/04/03 01:21:28;;;;;;;1.50;1.40;;;11.90;99.90;;;;;;4963489;28;20478;-90
2024/04/03 01:23:54;;;;;;;1.73;1.50;;;11.90;99.90;;;;;;4979643;28;20027;-92
2024/04/03 01:26:25;;;;;;;2.70;1.70;;;11.90;99.90;;;;;;4962912;28;20486;-89
2024/04/03 01:28:50;;;;;;;2.10;1.48;;;11.90;99.90;;;;;;4980067;28;20034;-88
2024/04/03 01:31:16;;;;;;;3.08;1.70;;;11.90;99.90;;;;;;4963896;28;20101;-89
2024/04/03 01:33:42;;;;;;;1.95;1.50;;;11.90;99.90;;;;;;4964523;28;20067;-91
2024/04/03 01:36:07;;;;;;;2.20;1.27;;;11.90;99.90;;;;;;4963948;28;20121;-90
2024/04/03 01:38:33;;;;;;;4.82;1.45;;;11.90;99.90;;;;;;4965130;28;20034;-90
2024/04/03 01:40:59;;;;;;;20.00;2.80;;;12.00;99.90;;;;;;4985019;28;20034;-89
2024/04/03 01:43:24;;;;;;;5.75;2.28;;;12.00;99.90;;;;;;4999776;28;20034;-86
2024/04/03 01:46:00;;;;;;;2.88;1.75;;;12.00;99.90;;;;;;4986573;28;20098;-90
2024/04/03 01:48:27;;;;;;;3.63;1.92;;;12.10;99.90;;;;;;5004065;28;20062;-90
2024/04/03 01:50:53;;;;;;;2.95;1.65;;;12.10;99.90;;;;;;4998464;28;20034;-89
2024/04/03 01:53:19;;;;;;;2.58;1.67;;;12.10;99.90;;;;;;4979795;28;20125;-90
2024/04/03 01:55:58;;;;;;;2.17;1.95;;;12.10;99.90;;;;;;4962802;28;20065;-88
2024/04/03 01:58:25;;;;;;;3.10;2.30;;;12.10;99.90;;;;;;4962425;28;20070;-88
2024/04/03 02:00:51;;;;;;;3.17;2.22;;;12.10;99.90;;;;;;5007189;28;20094;-91
2024/04/03 02:03:18;;;;;;;3.13;2.05;;;12.10;99.90;;;;;;4997814;28;20032;-89
2024/04/03 02:05:44;;;;;;;5.55;2.30;;;12.00;99.90;;;;;;4998434;28;20088;-89
2024/04/03 02:08:11;;;;;;;3.67;2.17;;;12.00;99.90;;;;;;4997987;28;20034;-90
2024/04/03 02:10:37;;;;;;;3.22;1.95;;;12.00;99.90;;;;;;4997756;28;20030;-90
2024/04/03 02:13:03;;;;;;;1.92;1.45;;;12.00;99.90;;;;;;4981976;28;20033;-91
2024/04/03 02:15:29;;;;;;;4.43;1.63;;;12.00;99.90;;;;;;4997762;28;20030;-90
2024/04/03 02:17:54;;;;;;;2.78;1.42;;;11.90;99.90;;;;;;4981588;28;20092;-89
2024/04/03 02:20:23;;;;;;;4.28;1.88;;;12.00;99.90;;;;;;4981718;28;20498;-88
2024/04/03 02:22:49;;;;;;;3.25;1.80;;;12.00;99.90;;;;;;4998316;28;20030;-92
2024/04/03 02:25:16;;;;;;;4.38;1.60;;;12.00;99.90;;;;;;4997734;28;20436;-90
2024/04/03 02:27:41;;;;;;;3.05;1.75;;;12.00;99.90;;;;;;4997712;28;20038;-91
2024/04/03 02:30:07;;;;;;;2.80;1.60;;;12.00;99.90;;;;;;4981864;28;20029;-89
2024/04/03 02:32:33;;;;;;;2.25;1.40;;;12.00;99.90;;;;;;4997901;28;20037;-89
2024/04/03 02:34:58;;;;;;;2.60;1.30;;;12.00;99.90;;;;;;5014811;28;20536;-89
2024/04/03 02:37:24;;;;;;;2.15;1.52;;;12.00;99.90;;;;;;4980446;28;20478;-90
2024/04/03 02:39:50;;;;;;;3.30;1.30;;;12.10;99.90;;;;;;4997054;28;20018;-91
2024/04/03 02:42:16;;;;;;;2.97;1.60;;;12.10;99.90;;;;;;4997449;28;20026;-89
2024/04/03 02:44:42;;;;;;;1.60;1.40;;;12.10;99.90;;;;;;4997400;28;20026;-88
2024/04/03 02:47:07;;;;;;;3.15;1.80;;;12.10;99.90;;;;;;5014526;28;20068;-87
2024/04/03 02:49:33;;;;;;;3.13;1.60;;;12.10;99.90;;;;;;4997527;28;20123;-88
2024/04/03 02:51:59;;;;;;;3.53;1.77;;;12.10;99.90;;;;;;4997659;28;20678;-89
2024/04/03 02:54:24;;;;;;;2.33;1.70;;;12.10;99.90;;;;;;4997330;28;20076;-89
2024/04/03 02:56:51;;;;;;;2.33;1.60;;;12.10;99.90;;;;;;4997727;28;20124;-89
2024/04/03 02:59:17;;;;;;;3.72;1.67;;;12.10;99.90;;;;;;4997849;28;20037;-88
2024/04/03 03:01:43;;;;;;;3.03;1.70;;;12.10;99.90;;;;;;4998066;28;20026;-91
2024/04/03 03:04:09;;;;;;;3.10;1.65;;;12.00;99.90;;;;;;4997798;28;20066;-91
2024/04/03 03:06:34;;;;;;;3.47;1.77;;;12.10;99.90;;;;;;4997777;28;20112;-90
2024/04/03 03:09:02;;;;;;;4.97;2.20;;;12.00;99.90;;;;;;4997769;28;20081;-90
2024/04/03 03:11:28;;;;;;;3.08;2.00;;;12.00;99.90;;;;;;4982215;28;20026;-91
2024/04/03 03:13:54;;;;;;;4.53;2.10;;;12.00;99.90;;;;;;5002087;28;20033;-88
2024/04/03 03:16:26;;;;;;;3.63;1.75;;;12.00;99.90;;;;;;5011610;28;20036;-87
2024/04/03 03:18:51;;;;;;;2.03;1.60;;;12.00;99.90;;;;;;5004809;28;20030;-89
2024/04/03 03:21:18;;;;;;;3.10;1.55;;;12.00;99.90;;;;;;5021109;28;20010;-88
2024/04/03 03:23:43;;;;;;;3.80;1.65;;;12.10;99.90;;;;;;5020880;28;20025;-91
2024/04/03 03:26:09;;;;;;;3.78;1.90;;;12.00;99.90;;;;;;5013834;28;20034;-90
2024/04/03 03:28:35;;;;;;;3.53;1.63;;;12.00;99.90;;;;;;4997848;28;20461;-89
2024/04/03 03:31:01;;;;;;;3.65;1.77;;;12.00;99.90;;;;;;5015282;28;20026;-89
2024/04/03 03:33:27;;;;;;;2.67;1.52;;;12.00;99.90;;;;;;5014365;28;20462;-89
2024/04/03 03:35:57;;;;;;;2.80;1.50;;;12.00;99.90;;;;;;4981125;28;20081;-90
2024/04/03 03:38:23;;;;;;;3.60;1.55;;;12.00;99.90;;;;;;5014369;28;20642;-90
2024/04/03 03:40:51;;;;;;;4.60;1.52;;;12.00;99.90;;;;;;4997391;28;20085;-88
2024/04/03 03:43:17;;;;;;;2.60;1.67;;;12.00;99.90;;;;;;4997048;28;20026;-89
2024/04/03 03:45:51;;;;;;;4.25;1.60;;;12.00;99.90;;;;;;4996752;28;20029;-89
2024/04/03 03:48:17;;;;;;;3.10;1.52;;;12.00;99.90;;;;;;4996691;28;20136;-89
2024/04/03 03:53:31;;;;;;;3.95;1.60;;;12.00;99.90;;;;;;5017091;28;20501;-86
2024/04/03 03:56:05;;;;;;;6.32;1.80;;;12.00;99.90;;;;;;5000221;28;20473;-89
2024/04/03 03:58:31;;;;;;;3.83;1.70;;;12.00;99.90;;;;;;4985347;28;20117;-90
2024/04/03 04:00:57;;;;;;;3.28;1.70;;;12.00;99.90;;;;;;5000337;28;20057;-90
2024/04/03 04:03:22;;;;;;;3.72;1.70;;;12.00;99.90;;;;;;4984069;28;20029;-89
2024/04/03 04:06:00;;;;;;;4.35;1.73;;;12.00;99.90;;;;;;4999979;28;20088;-90
2024/04/03 04:08:26;;;;;;;3.42;1.73;;;12.00;99.90;;;;;;5000339;28;20065;-90
2024/04/03 04:10:55;;;;;;;2.95;1.55;;;12.00;99.90;;;;;;5017514;28;20026;-90
2024/04/03 04:13:21;;;;;;;2.97;1.73;;;12.00;99.90;;;;;;4984701;28;20056;-89
2024/04/03 04:15:46;;;;;;;3.35;1.48;;;12.00;99.90;;;;;;5000819;28;20084;-91
2024/04/03 04:18:14;;;;;;;3.60;1.50;;;12.00;99.90;;;;;;5000292;28;20065;-92
2024/04/03 04:20:43;;;;;;;4.43;1.60;;;12.00;99.90;;;;;;4984027;28;20030;-90
2024/04/03 04:23:09;;;;;;;3.92;1.65;;;12.00;99.90;;;;;;5018434;28;20028;-90
2024/04/03 04:25:35;;;;;;;3.75;1.48;;;12.00;99.90;;;;;;4984002;28;20026;-91
2024/04/03 04:28:00;;;;;;;3.97;1.50;;;11.90;99.90;;;;;;5017413;28;20034;-91
2024/04/03 04:30:27;;;;;;;3.45;1.50;;;12.00;99.90;;;;;;4983432;28;20116;-91
2024/04/03 04:32:53;;;;;;;4.47;1.52;;;12.00;99.90;;;;;;4985083;28;20095;-90
2024/04/03 04:35:18;;;;;;;3.83;1.42;;;12.00;99.90;;;;;;5000086;28;20037;-91
2024/04/03 04:37:45;;;;;;;2.17;1.20;;;12.00;99.90;;;;;;5017013;28;20041;-90
2024/04/03 04:40:14;;;;;;;4.90;1.50;;;12.00;99.90;;;;;;5000299;28;20026;-89
2024/04/03 04:42:43;;;;;;;4.35;1.67;;;11.90;99.90;;;;;;4982714;28;20030;-88
2024/04/03 04:45:09;;;;;;;3.42;1.40;;;12.00;99.90;;;;;;4999695;28;20025;-88
2024/04/03 04:47:34;;;;;;;4.35;1.90;;;11.90;99.90;;;;;;4977588;28;20054;-90
2024/04/03 04:50:00;;;;;;;4.13;1.77;;;11.90;99.90;;;;;;4995406;28;20040;-87
2024/04/03 04:52:27;;;;;;;3.42;1.90;;;11.90;99.90;;;;;;5003310;28;20074;-87
2024/04/03 04:54:52;;;;;;;3.03;1.50;;;11.90;99.90;;;;;;5003397;28;20042;-89
2024/04/03 04:57:19;;;;;;;4.18;1.70;;;11.90;99.90;;;;;;5003248;28;20046;-90
2024/04/03 04:59:45;;;;;;;3.47;1.60;;;11.90;99.90;;;;;;5003411;28;20011;-84
2024/04/03 05:02:11;;;;;;;3.38;1.60;;;11.90;99.90;;;;;;5002182;28;20017;-90
2024/04/03 05:04:36;;;;;;;2.85;1.50;;;11.90;99.90;;;;;;4993183;28;20467;-90
2024/04/03 05:07:07;;;;;;;3.60;1.60;;;11.90;99.90;;;;;;4990259;28;20475;-94
2024/04/03 05:09:32;;;;;;;3.20;1.50;;;11.90;99.90;;;;;;4981496;28;20034;-91
2024/04/03 05:11:58;;;;;;;2.30;1.55;;;11.90;99.90;;;;;;4963402;28;20269;-90
2024/04/03 05:14:25;;;;;;;5.20;2.03;;;11.90;99.90;;;;;;4963945;28;20026;-89
2024/04/03 05:16:50;;;;;;;3.25;1.30;;;11.90;99.90;;;;;;4981085;28;20439;-89
2024/04/03 05:19:16;;;;;;;1.90;1.20;;;11.90;99.90;;;;;;4965357;28;20053;-88
2024/04/03 05:21:42;;;;;;;4.15;1.73;;;11.90;99.90;;;;;;4982003;28;20048;-88
2024/04/03 05:24:07;;;;;;;3.13;1.77;;;11.90;99.90;;;;;;4997979;28;20453;-89
2024/04/03 05:26:36;;;;;;;2.28;1.40;;;11.90;99.90;;;;;;4979927;28;20029;-88
2024/04/03 05:29:02;;;;;;;3.75;1.60;;;11.90;99.90;;;;;;4996969;28;20018;-89
2024/04/03 05:31:27;;;;;;;3.83;1.50;;;11.90;99.90;;;;;;4996996;28;20030;-89
2024/04/03 05:33:53;;;;;;;3.55;1.60;;;11.90;99.90;;;;;;4979065;28;20438;-89
2024/04/03 05:36:19;;;;;;;2.90;1.58;;;11.90;99.90;;;;;;4979374;28;20038;-88
2024/04/03 05:38:44;;;;;;;4.85;1.92;;;11.90;99.90;;;;;;4979137;28;20035;-91
2024/04/03 05:41:10;;;;;;;3.05;1.80;;;12.00;99.90;;;;;;4979201;28;20069;-89
2024/04/03 05:43:37;;;;;;;2.90;1.33;;;11.90;99.90;;;;;;4962964;28;20401;-91
2024/04/03 05:46:03;;;;;;;3.45;1.88;;;12.00;99.90;;;;;;4978694;28;20030;-89
2024/04/03 05:48:30;;;;;;;3.22;1.80;;;11.90;99.90;;;;;;4978916;28;20077;-90
2024/04/03 05:51:09;;;;;;;3.50;1.90;;;11.90;99.90;;;;;;4978795;28;20014;-91
2024/04/03 05:53:35;;;;;;;4.38;1.80;;;12.00;99.90;;;;;;4996054;28;20466;-89
2024/04/03 05:56:03;;;;;;;4.60;1.77;;;12.00;99.90;;;;;;4978923;28;20459;-91
2024/04/03 05:58:29;;;;;;;4.20;1.80;;;11.90;99.90;;;;;;4962685;28;20090;-88
2024/04/03 06:00:56;;;;;;;6.10;2.10;;;11.90;99.90;;;;;;4995544;28;20030;-90
2024/04/03 06:03:22;;;;;;;3.55;1.92;;;11.90;99.90;;;;;;4978751;28;20038;-90
2024/04/03 06:05:53;;;;;;;6.38;2.40;;;11.90;99.90;;;;;;4962185;28;20023;-90
2024/04/03 06:08:20;;;;;;;3.92;2.03;;;11.90;99.90;;;;;;4996284;28;20481;-90
2024/04/03 06:10:46;;;;;;;5.15;2.20;;;12.00;99.90;;;;;;4962596;28;20085;-89
2024/04/03 06:13:11;;;;;;;5.45;2.60;;;12.00;99.90;;;;;;4978774;28;20030;-91
2024/04/03 06:15:37;;;;;;;2.33;1.67;;;12.00;99.90;;;;;;4962038;28;20033;-90
2024/04/03 06:18:03;;;;;;;4.18;2.28;;;11.90;99.90;;;;;;4978716;28;20175;-89
2024/04/03 06:20:29;;;;;;;4.38;2.00;;;11.90;99.90;;;;;;4978762;28;20027;-87
2024/04/03 06:22:54;;;;;;;3.90;2.10;;;11.90;99.90;;;;;;4979018;28;20030;-89
2024/04/03 06:25:20;;;;;;;3.80;2.00;;;11.90;99.90;;;;;;4986497;28;20050;-88
2024/04/03 06:27:46;;;;;;;4.15;1.90;;;12.00;99.90;;;;;;5001929;28;20014;-87
2024/04/03 06:30:12;;;;;;;4.82;2.10;;;12.00;99.90;;;;;;4985810;28;20014;-88
2024/04/03 06:32:39;;;;;;;3.53;1.60;;;12.00;99.90;;;;;;5001972;28;20089;-89
2024/04/03 06:35:05;;;;;;;3.15;1.73;;;12.00;99.90;;;;;;4994143;28;20030;-89
2024/04/03 06:37:34;;;;;;;6.13;2.30;;;12.00;99.90;;;;;;4978938;28;20041;-91
2024/04/03 06:40:00;;;;;;;4.28;1.98;;;12.00;99.90;;;;;;4978515;28;20022;-91
2024/04/03 06:42:25;;;;;;;4.10;1.75;;;12.00;99.90;;;;;;4978197;28;20026;-89
2024/04/03 06:44:52;;;;;;;4.93;1.77;;;12.10;99.90;;;;;;4962116;28;20386;-88
2024/04/03 06:47:18;;;;;;;2.65;1.52;;;12.10;99.90;;;;;;4977828;28;20129;-90
2024/04/03 06:49:43;;;;;;;2.25;1.70;;;12.10;99.90;;;;;;4962335;28;20427;-90
2024/04/03 06:52:09;;;;;;;2.70;1.58;;;12.20;99.90;;;;;;4977816;28;20100;-89
2024/04/03 06:54:35;;;;;;;4.00;1.75;;;12.10;99.90;;;;;;4995693;28;20069;-88
2024/04/03 06:57:05;;;;;;;4.47;1.90;;;12.20;99.90;;;;;;4961500;28;20409;-89
2024/04/03 06:59:34;;;;;;;3.20;2.10;;;12.20;99.90;;;;;;4978162;28;20022;-87
2024/04/03 07:01:59;;;;;;;2.60;1.50;;;12.20;99.90;;;;;;4977976;28;20125;-88
2024/04/03 07:04:25;;;;;;;2.55;1.63;;;12.20;99.90;;;;;;4978096;28;20054;-88
2024/04/03 07:06:51;;;;;;;3.67;1.77;;;12.20;99.90;;;;;;4961383;28;20485;-91
2024/04/03 07:09:16;;;;;;;4.75;2.00;;;12.20;99.90;;;;;;4962034;28;20447;-88
2024/04/03 07:11:42;;;;;;;4.63;1.70;;;12.30;99.90;;;;;;4978183;28;20060;-89
2024/04/03 07:14:07;;;;;;;4.13;1.73;;;12.30;99.90;;;;;;4977745;28;20030;-88
2024/04/03 07:16:34;;;;;;;2.63;1.67;;;12.30;99.90;;;;;;4977703;28;20042;-90
2024/04/03 07:19:03;;;;;;;3.63;2.00;;;12.40;99.90;;;;;;4961496;28;20046;-90
2024/04/03 07:21:29;;;;;;;4.75;1.83;;;12.40;99.90;;;;;;4994703;28;20471;-89
2024/04/03 07:23:55;;;;;;;2.30;1.60;;;12.40;99.90;;;;;;4977654;28;20018;-87
2024/04/03 07:26:23;;;;;;;4.22;1.75;;;12.40;99.90;;;;;;4996508;28;20029;-89
2024/04/03 07:28:49;;;;;;;2.75;1.50;;;12.40;99.90;;;;;;4965962;28;20060;-88
2024/04/03 07:31:15;;;;;;;3.38;1.60;;;12.40;99.90;;;;;;4981786;28;20026;-89
2024/04/03 07:33:40;;;;;;;4.68;1.60;;;12.40;99.90;;;;;;4965861;28;20026;-89
2024/04/03 07:36:07;;;;;;;4.50;1.67;;;12.50;99.90;;;;;;4965553;28;20517;-89
2024/04/03 07:38:33;;;;;;;3.60;1.60;;;12.40;99.90;;;;;;4982159;28;20030;-89
2024/04/03 07:40:59;;;;;;;1.92;1.17;;;12.50;99.90;;;;;;4981983;28;20118;-89
2024/04/03 07:43:25;;;;;;;6.28;1.60;;;12.50;99.90;;;;;;4966395;28;20035;-91
2024/04/03 07:45:59;;;;;;;4.47;1.63;;;12.50;99.90;;;;;;4999053;28;20029;-90
2024/04/03 07:48:25;;;;;;;3.47;1.38;;;12.50;99.90;;;;;;4983056;28;20550;-87
2024/04/03 07:51:01;;;;;;;2.90;1.42;;;12.50;99.90;;;;;;4970429;28;20070;-88
2024/04/03 07:53:27;;;;;;;3.15;1.42;;;12.50;99.90;;;;;;4996924;28;20605;-90
2024/04/03 07:55:53;;;;;;;3.72;1.70;;;12.50;99.90;;;;;;4997665;28;20064;-90
2024/04/03 07:58:19;;;;;;;4.57;1.38;;;12.50;99.90;;;;;;5015820;28;20034;-92
2024/04/03 08:00:45;;;;;;;4.22;1.60;;;12.50;99.90;;;;;;5003221;28;20030;-92
2024/04/03 08:03:11;;;;;;;4.03;1.90;;;12.50;99.90;;;;;;5001677;28;20026;-87
2024/04/03 08:05:37;;;;;;;2.75;1.45;;;12.40;99.90;;;;;;4973483;28;20041;-89
2024/04/03 08:08:03;;;;;;;3.35;1.60;;;12.50;99.90;;;;;;5002203;28;20034;-89
2024/04/03 08:10:29;;;;;;;3.45;1.50;;;12.50;99.90;;;;;;4966703;28;20030;-88
2024/04/03 08:12:55;;;;;;;2.83;1.50;;;12.50;99.90;;;;;;4968621;28;20375;-90
2024/04/03 08:15:21;;;;;;;2.05;1.50;;;12.50;99.90;;;;;;4985216;28;20026;-89
2024/04/03 08:17:47;;;;;;;2.33;1.58;;;12.60;99.90;;;;;;4984841;28;20098;-90
2024/04/03 08:20:12;;;;;;;4.22;1.70;;;12.60;99.90;;;;;;4969227;28;20022;-88
2024/04/03 08:22:38;;;;;;;4.65;1.60;;;12.70;99.90;;;;;;4983040;28;20158;-90
2024/04/03 08:25:04;;;;;;;3.65;1.52;;;12.70;99.90;;;;;;4965297;28;20069;-89
2024/04/03 08:27:34;;;;;;;3.10;1.55;;;12.70;99.90;;;;;;4965668;28;20038;-92
2024/04/03 08:30:01;;;;;;;4.97;1.70;;;12.70;99.90;;;;;;4964652;28;20030;-90
2024/04/03 08:32:27;;;;;;;3.35;1.38;;;12.70;99.90;;;;;;4964257;28;20049;-91
2024/04/03 08:34:53;;;;;;;3.90;1.60;;;12.80;99.90;;;;;;4997103;28;20545;-89
2024/04/03 08:37:19;;;;;;;4.30;1.60;;;12.80;99.90;;;;;;4963005;28;20574;-90
2024/04/03 08:39:46;;;;;;;3.80;1.77;;;12.70;99.90;;;;;;4979696;28;20104;-90
2024/04/03 08:42:15;;;;;;;3.70;1.60;;;12.70;99.90;;;;;;4979987;28;20031;-87
2024/04/03 08:44:43;;;;;;;3.55;1.30;;;12.70;99.90;;;;;;4997383;28;20103;-87
2024/04/03 08:47:09;;;;;;;4.38;1.75;;;12.70;99.90;;;;;;4999668;28;20085;-89
2024/04/03 08:49:38;;;;;;;4.05;1.75;;;12.70;99.90;;;;;;4999460;28;20022;-90
2024/04/03 08:52:10;;;;;;;3.40;1.58;;;12.70;99.90;;;;;;4982759;28;20049;-88
2024/04/03 08:54:40;;;;;;;2.63;1.50;;;12.70;99.90;;;;;;5016699;28;20021;-89
2024/04/03 08:57:08;;;;;;;3.58;1.67;;;12.70;99.90;;;;;;5016147;28;20037;-89
2024/04/03 08:59:38;;;;;;;2.92;1.33;;;12.60;99.90;;;;;;4982940;28;20026;-89
2024/04/03 09:02:04;;;;;;;2.97;1.35;;;12.60;99.90;;;;;;5016887;28;20025;-90
2024/04/03 09:04:32;;;;;;;4.82;1.52;;;12.60;99.90;;;;;;4999803;28;20026;-89
2024/04/03 09:06:57;;;;;;;3.33;1.48;;;12.60;99.90;;;;;;5017103;28;20022;-89
2024/04/03 09:09:25;;;;;;;3.17;1.80;;;12.60;99.90;;;;;;4984903;28;20030;-89
2024/04/03 09:12:00;;;;;;;2.85;1.70;;;12.60;99.90;;;;;;5001118;28;20026;-88
2024/04/03 09:14:26;;;;;;;3.33;1.48;;;12.60;99.90;;;;;;5000698;28;20018;-89
2024/04/03 09:16:58;;;;;;;1.50;1.13;;;12.60;99.90;;;;;;5000824;28;20033;-89
2024/04/03 09:19:27;;;;;;;2.45;1.23;;;12.70;99.90;;;;;;4999659;28;20021;-87
2024/04/03 09:21:54;;;;;;;4.38;1.50;;;12.70;99.90;;;;;;5001054;28;20076;-88
2024/04/03 09:24:19;;;;;;;3.60;1.50;;;12.70;99.90;;;;;;5002801;28;20113;-89
2024/04/03 09:26:45;;;;;;;2.85;1.05;;;12.70;99.90;;;;;;4987652;28;20053;-88
2024/04/03 09:29:15;;;;;;;3.70;1.45;;;12.70;99.90;;;;;;5005184;28;20022;-90
2024/04/03 09:31:43;;;;;;;1.92;1.27;;;12.80;99.90;;;;;;5025471;28;20032;-90
2024/04/03 09:34:09;;;;;;;2.28;1.38;;;12.80;99.90;;;;;;5013150;28;20006;-88
2024/04/03 09:36:35;;;;;;;2.33;1.30;;;12.90;99.90;;;;;;5002011;28;20043;-90
2024/04/03 09:39:02;;;;;;;2.45;1.00;;;12.90;99.90;;;;;;5005620;28;20013;-87
2024/04/03 09:41:30;;;;;;;2.00;1.13;;;12.90;99.90;;;;;;5021237;28;20026;-88
2024/04/03 09:44:00;;;;;;;2.22;1.33;;;13.00;99.90;;;;;;5035738;28;20087;-89
2024/04/03 09:46:33;;;;;;;1.58;1.25;;;13.00;99.90;;;;;;5002637;28;20049;-90
2024/04/03 09:49:01;;;;;;;1.67;1.27;;;13.00;99.90;;;;;;5016124;28;20085;-89
2024/04/03 09:51:26;;;;;;;2.78;1.00;;;13.00;99.90;;;;;;4997942;28;20077;-89
2024/04/03 09:53:52;;;;;;;1.35;1.13;;;13.00;99.90;;;;;;4998191;28;20029;-89
2024/04/03 09:56:18;;;;;;;2.63;1.30;;;12.90;99.90;;;;;;4997780;28;20083;-89
2024/04/03 09:58:44;;;;;;;2.22;1.20;;;13.00;99.90;;;;;;4997941;28;20418;-88
2024/04/03 10:01:10;;;;;;;1.80;1.27;;;13.00;99.90;;;;;;5015212;28;20107;-88
2024/04/03 10:03:36;;;;;;;4.40;1.63;;;13.10;99.90;;;;;;5015274;28;20358;-89
2024/04/03 10:06:03;;;;;;;2.33;1.23;;;13.10;99.90;;;;;;4997801;28;20389;-88
2024/04/03 10:08:40;;;;;;;3.20;1.30;;;13.20;99.90;;;;;;4997776;28;20505;-90
2024/04/03 10:11:12;;;;;;;2.00;1.20;;;13.20;99.90;;;;;;4997938;28;20018;-88
2024/04/03 10:13:39;;;;;;;3.13;1.30;;;13.20;99.90;;;;;;4997598;28;20025;-88
2024/04/03 10:16:10;;;;;;;3.30;1.30;;;13.20;99.90;;;;;;5015150;28;20026;-89
2024/04/03 10:18:49;;;;;;;2.08;1.00;;;13.30;99.90;;;;;;4997526;28;20034;-88
2024/04/03 10:21:17;;;;;;;1.73;0.88;;;13.30;99.90;;;;;;5015230;28;20132;-90
2024/04/03 10:23:44;;;;;;;1.60;1.10;;;13.40;99.90;;;;;;5014722;28;20541;-91
2024/04/03 10:26:13;;;;;;;2.20;1.20;;;13.40;99.90;;;;;;5015239;28;20032;-87
2024/04/03 10:28:40;;;;;;;2.75;1.30;;;13.60;99.90;;;;;;4997546;28;20030;-87
2024/04/03 10:31:06;;;;;;;1.80;1.00;;;13.60;99.90;;;;;;4996310;28;20080;-88
2024/04/03 10:33:32;;;;;;;2.00;1.23;;;13.70;99.90;;;;;;4997112;28;20026;-89
2024/04/03 10:35:59;;;;;;;3.33;1.23;;;13.80;99.90;;;;;;4996538;28;20184;-89
2024/04/03 10:38:28;;;;;;;1.92;1.40;;;13.80;99.90;;;;;;4980591;28;20087;-88
2024/04/03 10:40:56;;;;;;;1.55;1.20;;;13.90;99.90;;;;;;4996839;28;20026;-87
2024/04/03 10:43:22;;;;;;;1.52;0.95;;;13.90;99.90;;;;;;4996679;28;20026;-88
2024/04/03 10:45:52;;;;;;;3.10;1.20;;;14.00;99.90;;;;;;4997044;28;20450;-87
2024/04/03 10:48:20;;;;;;;2.33;1.00;;;14.10;99.90;;;;;;5014417;28;20484;-89
2024/04/03 10:50:47;;;;;;;2.70;1.30;;;14.10;99.90;;;;;;5014331;28;20030;-91
2024/04/03 10:53:14;;;;;;;1.75;1.30;;;14.10;99.90;;;;;;4996897;28;20382;-85
2024/04/03 10:55:40;;;;;;;2.97;1.35;;;14.20;99.90;;;;;;4999263;28;20022;-88
2024/04/03 10:58:07;;;;;;;0.90;0.90;;;14.20;99.90;;;;;;5015374;28;20121;-90
2024/04/03 11:00:34;;;;;;;2.67;1.20;;;14.30;99.90;;;;;;4997776;28;20030;-88
2024/04/03 11:03:04;;;;;;;4.03;1.33;;;14.30;99.90;;;;;;4985500;28;20022;-89
2024/04/03 11:05:31;;;;;;;2.10;1.10;;;14.30;99.90;;;;;;5001674;28;20029;-88
2024/04/03 11:07:57;;;;;;;2.42;1.00;;;14.30;99.90;;;;;;5001784;28;20026;-90
2024/04/03 11:10:24;;;;;;;2.75;1.10;;;14.30;99.90;;;;;;5003117;28;20163;-88
2024/04/03 11:13:00;;;;;;;2.45;1.23;;;14.30;99.90;;;;;;5015309;28;20010;-88
2024/04/03 11:15:26;;;;;;;2.28;1.23;;;14.30;99.90;;;;;;5024746;28;20014;-88
2024/04/03 11:17:52;;;;;;;2.45;1.33;;;14.30;99.90;;;;;;5008388;28;20021;-86
2024/04/03 11:20:17;;;;;;;2.13;1.13;;;14.30;99.90;;;;;;5041557;28;20014;-86
2024/04/03 11:22:43;;;;;;;1.50;1.02;;;14.30;99.90;;;;;;5023047;28;20030;-89
2024/04/03 11:25:12;;;;;;;3.72;1.33;;;14.30;99.90;;;;;;5005262;28;20517;-88
2024/04/03 11:27:39;;;;;;;1.98;1.30;;;14.20;99.90;;;;;;4987156;28;20101;-89
2024/04/03 11:30:06;;;;;;;1.30;1.05;;;14.20;99.90;;;;;;5003052;28;20018;-88
2024/04/03 11:32:33;;;;;;;1.15;1.00;;;14.20;99.90;;;;;;5003359;28;20026;-89
2024/04/03 11:35:02;;;;;;;1.25;0.90;;;14.20;99.90;;;;;;5002864;28;20054;-86
2024/04/03 11:37:30;;;;;;;0.90;0.73;;;14.30;99.90;;;;;;5001400;28;20482;-90
2024/04/03 11:39:58;;;;;;;1.58;0.90;;;14.30;99.90;;;;;;4986046;28;20389;-89
2024/04/03 11:42:24;;;;;;;1.83;1.13;;;14.30;99.90;;;;;;4986064;28;20030;-90
2024/04/03 11:44:50;;;;;;;1.13;1.02;;;14.30;99.90;;;;;;5001478;28;20026;-90
2024/04/03 11:47:16;;;;;;;2.42;1.10;;;14.30;99.90;;;;;;5019086;28;20057;-89
2024/04/03 11:49:45;;;;;;;1.45;0.98;;;14.30;99.90;;;;;;5003824;28;20030;-88
2024/04/03 11:52:11;;;;;;;2.38;1.00;;;14.30;99.90;;;;;;4987977;28;20030;-89
2024/04/03 11:54:37;;;;;;;1.73;0.90;;;14.20;99.90;;;;;;5006973;28;20037;-93
2024/04/03 11:57:02;;;;;;;2.55;0.95;;;14.30;99.90;;;;;;5004363;28;20371;-88
2024/04/03 11:59:29;;;;;;;1.88;1.00;;;14.30;99.90;;;;;;4987543;28;20470;-94
2024/04/03 12:01:54;;;;;;;1.15;0.85;;;14.30;99.90;;;;;;5002565;28;20397;-87
2024/04/03 12:04:20;;;;;;;0.95;0.85;;;14.30;99.90;;;;;;5001509;28;20047;-90
2024/04/03 12:06:46;;;;;;;1.25;1.00;;;14.30;99.90;;;;;;4987435;28;20026;-89
2024/04/03 12:09:17;;;;;;;3.10;0.95;;;14.40;99.90;;;;;;4986105;28;20554;-92
2024/04/03 12:11:44;;;;;;;1.33;1.10;;;14.40;99.90;;;;;;5001450;28;20026;-89
2024/04/03 12:14:13;;;;;;;1.05;0.73;;;14.30;99.90;;;;;;5017466;28;20028;-90
2024/04/03 12:16:52;;;;;;;1.48;0.75;;;14.40;99.90;;;;;;4985075;28;20454;-91
2024/04/03 12:19:33;;;;;;;1.02;0.80;;;14.40;99.90;;;;;;4986765;28;20474;-89
2024/04/03 12:22:01;;;;;;;1.63;0.80;;;14.50;99.90;;;;;;5001248;28;20057;-89
2024/04/03 12:24:27;;;;;;;3.20;0.80;;;14.50;99.90;;;;;;5018864;28;20101;-89
2024/04/03 12:26:52;;;;;;;2.08;1.25;;;14.50;99.90;;;;;;5001177;28;20508;-90
2024/04/03 12:29:18;;;;;;;0.82;0.82;;;14.50;99.90;;;;;;5018696;28;20081;-89
2024/04/03 12:31:45;;;;;;;0.75;0.57;;;14.50;99.90;;;;;;5017663;28;20370;-90
2024/04/03 12:34:14;;;;;;;1.75;0.95;;;14.50;99.90;;;;;;5000806;28;20092;-90
2024/04/03 12:36:43;;;;;;;1.08;0.60;;;14.50;99.90;;;;;;5001069;28;20057;-92
2024/04/03 12:39:09;;;;;;;1.25;0.80;;;14.40;99.90;;;;;;4985844;28;20034;-91
2024/04/03 12:41:37;;;;;;;1.38;0.70;;;14.50;99.90;;;;;;5003328;28;20014;-90
2024/04/03 12:44:03;;;;;;;1.60;1.10;;;14.50;99.90;;;;;;4986822;28;20026;-90
2024/04/03 12:46:31;;;;;;;0.85;0.50;;;14.60;99.90;;;;;;5002670;28;20516;-90
2024/04/03 12:48:57;;;;;;;0.80;0.60;;;14.60;99.90;;;;;;5002901;28;20133;-91